sensor_id;sensor_type;location;lat;lon;timestamp;P1;durP1;ratioP1;P2;durP2;ratioP2
14021;SDS011;7086;48.116;11.580;2023-07-22T00:00:34;3.13;;;1.85;;
14021;SDS011;7086;48.116;11.580;2023-07-22T00:03:01;1.80;;;1.70;;
14021;SDS011;7086;48.116;11.580;2023-07-22T00:05:28;1.20;;;1.20;;
14021;SDS011;7086;48.116;11.580;2023-07-22T00:07:55;3.08;;;1.60;;
14021;SDS011;7086;48.116;11.580;2023-07-22T00:10:23;1.95;;;1.83;;
14021;SDS011;7086;48.116;11.580;2023-07-22T00:12:49;1.83;;;1.67;;
14021;SDS011;7086;48.116;11.580;2023-07-22T00:15:16;1.77;;;1.67;;
14021;SDS011;7086;48.116;11.580;2023-07-22T00:17:45;1.80;;;1.70;;
14021;SDS011;7086;48.116;11.580;2023-07-22T00:20:12;1.77;;;1.67;;
14021;SDS011;7086;48.116;11.580;2023-07-22T00:22:41;2.08;;;1.92;;
14021;SDS011;7086;48.116;11.580;2023-07-22T00:25:09;1.67;;;1.58;;
14021;SDS011;7086;48.116;11.580;2023-07-22T00:27:37;2.50;;;2.30;;
14021;SDS011;7086;48.116;11.580;2023-07-22T00:30:05;4.20;;;2.28;;
14021;SDS011;7086;48.116;11.580;2023-07-22T00:32:32;2.40;;;2.20;;
14021;SDS011;7086;48.116;11.580;2023-07-22T00:34:59;2.55;;;2.35;;
14021;SDS011;7086;48.116;11.580;2023-07-22T00:37:26;2.42;;;2.33;;
14021;SDS011;7086;48.116;11.580;2023-07-22T00:39:52;2.20;;;2.10;;
14021;SDS011;7086;48.116;11.580;2023-07-22T00:42:20;3.55;;;1.95;;
14021;SDS011;7086;48.116;11.580;2023-07-22T00:44:48;2.92;;;2.47;;
14021;SDS011;7086;48.116;11.580;2023-07-22T00:47:15;2.25;;;2.08;;
14021;SDS011;7086;48.116;11.580;2023-07-22T00:49:42;3.72;;;3.28;;
14021;SDS011;7086;48.116;11.580;2023-07-22T00:52:09;2.38;;;2.28;;
14021;SDS011;7086;48.116;11.580;2023-07-22T00:54:36;2.97;;;2.78;;
14021;SDS011;7086;48.116;11.580;2023-07-22T00:57:03;2.72;;;2.53;;
14021;SDS011;7086;48.116;11.580;2023-07-22T00:59:30;2.42;;;2.10;;
14021;SDS011;7086;48.116;11.580;2023-07-22T01:01:58;2.50;;;2.25;;
14021;SDS011;7086;48.116;11.580;2023-07-22T01:04:25;2.95;;;1.95;;
14021;SDS011;7086;48.116;11.580;2023-07-22T01:06:52;2.53;;;2.33;;
14021;SDS011;7086;48.116;11.580;2023-07-22T01:09:19;2.08;;;1.90;;
14021;SDS011;7086;48.116;11.580;2023-07-22T01:11:46;3.50;;;2.20;;
14021;SDS011;7086;48.116;11.580;2023-07-22T01:14:13;4.80;;;2.35;;
14021;SDS011;7086;48.116;11.580;2023-07-22T01:16:40;3.05;;;2.70;;
14021;SDS011;7086;48.116;11.580;2023-07-22T01:19:09;2.55;;;2.35;;
14021;SDS011;7086;48.116;11.580;2023-07-22T01:21:39;3.72;;;2.38;;
14021;SDS011;7086;48.116;11.580;2023-07-22T01:24:08;4.03;;;2.13;;
14021;SDS011;7086;48.116;11.580;2023-07-22T01:26:35;3.28;;;2.33;;
14021;SDS011;7086;48.116;11.580;2023-07-22T01:29:03;2.05;;;1.85;;
14021;SDS011;7086;48.116;11.580;2023-07-22T01:31:31;1.70;;;1.60;;
14021;SDS011;7086;48.116;11.580;2023-07-22T01:34:00;4.03;;;2.00;;
14021;SDS011;7086;48.116;11.580;2023-07-22T01:36:26;1.95;;;1.85;;
14021;SDS011;7086;48.116;11.580;2023-07-22T01:38:53;1.90;;;1.80;;
14021;SDS011;7086;48.116;11.580;2023-07-22T01:41:21;2.60;;;2.20;;
14021;SDS011;7086;48.116;11.580;2023-07-22T01:43:48;2.45;;;2.25;;
14021;SDS011;7086;48.116;11.580;2023-07-22T01:46:17;2.15;;;1.67;;
14021;SDS011;7086;48.116;11.580;2023-07-22T01:48:44;2.13;;;2.03;;
14021;SDS011;7086;48.116;11.580;2023-07-22T01:51:11;1.60;;;1.50;;
14021;SDS011;7086;48.116;11.580;2023-07-22T01:53:38;2.28;;;2.13;;
14021;SDS011;7086;48.116;11.580;2023-07-22T01:56:05;1.73;;;1.63;;
14021;SDS011;7086;48.116;11.580;2023-07-22T01:58:33;2.70;;;1.90;;
14021;SDS011;7086;48.116;11.580;2023-07-22T02:01:00;3.80;;;1.85;;
14021;SDS011;7086;48.116;11.580;2023-07-22T02:03:26;1.95;;;1.85;;
14021;SDS011;7086;48.116;11.580;2023-07-22T02:05:53;2.05;;;1.95;;
14021;SDS011;7086;48.116;11.580;2023-07-22T02:08:26;2.75;;;2.10;;
14021;SDS011;7086;48.116;11.580;2023-07-22T02:10:53;1.80;;;1.70;;
14021;SDS011;7086;48.116;11.580;2023-07-22T02:13:20;1.63;;;1.58;;
14021;SDS011;7086;48.116;11.580;2023-07-22T02:15:48;1.90;;;1.80;;
14021;SDS011;7086;48.116;11.580;2023-07-22T02:18:15;1.80;;;1.75;;
14021;SDS011;7086;48.116;11.580;2023-07-22T02:20:42;1.65;;;1.60;;
14021;SDS011;7086;48.116;11.580;2023-07-22T02:23:09;1.98;;;1.88;;
14021;SDS011;7086;48.116;11.580;2023-07-22T02:25:36;2.05;;;1.85;;
14021;SDS011;7086;48.116;11.580;2023-07-22T02:28:03;2.85;;;1.65;;
14021;SDS011;7086;48.116;11.580;2023-07-22T02:30:33;2.05;;;1.70;;
14021;SDS011;7086;48.116;11.580;2023-07-22T02:33:01;2.35;;;1.80;;
14021;SDS011;7086;48.116;11.580;2023-07-22T02:35:28;2.30;;;2.15;;
14021;SDS011;7086;48.116;11.580;2023-07-22T02:37:56;1.90;;;1.73;;
14021;SDS011;7086;48.116;11.580;2023-07-22T02:40:22;1.38;;;1.38;;
14021;SDS011;7086;48.116;11.580;2023-07-22T02:42:49;1.65;;;1.55;;
14021;SDS011;7086;48.116;11.580;2023-07-22T02:45:16;2.42;;;1.95;;
14021;SDS011;7086;48.116;11.580;2023-07-22T02:47:43;2.28;;;1.92;;
14021;SDS011;7086;48.116;11.580;2023-07-22T02:50:11;1.90;;;1.80;;
14021;SDS011;7086;48.116;11.580;2023-07-22T02:52:38;2.05;;;1.63;;
14021;SDS011;7086;48.116;11.580;2023-07-22T02:55:05;4.97;;;2.92;;
14021;SDS011;7086;48.116;11.580;2023-07-22T02:57:35;2.55;;;1.90;;
14021;SDS011;7086;48.116;11.580;2023-07-22T03:00:03;3.13;;;1.60;;
14021;SDS011;7086;48.116;11.580;2023-07-22T03:02:33;2.00;;;1.90;;
14021;SDS011;7086;48.116;11.580;2023-07-22T03:05:00;1.85;;;1.75;;
14021;SDS011;7086;48.116;11.580;2023-07-22T03:07:29;1.90;;;1.80;;
14021;SDS011;7086;48.116;11.580;2023-07-22T03:09:56;2.03;;;1.92;;
14021;SDS011;7086;48.116;11.580;2023-07-22T03:12:22;1.83;;;1.73;;
14021;SDS011;7086;48.116;11.580;2023-07-22T03:14:49;1.42;;;1.38;;
14021;SDS011;7086;48.116;11.580;2023-07-22T03:17:17;2.20;;;2.05;;
14021;SDS011;7086;48.116;11.580;2023-07-22T03:19:44;2.03;;;1.92;;
14021;SDS011;7086;48.116;11.580;2023-07-22T03:22:13;1.95;;;1.85;;
14021;SDS011;7086;48.116;11.580;2023-07-22T03:24:42;2.15;;;2.05;;
14021;SDS011;7086;48.116;11.580;2023-07-22T03:27:09;4.00;;;2.20;;
14021;SDS011;7086;48.116;11.580;2023-07-22T03:29:36;3.53;;;2.10;;
14021;SDS011;7086;48.116;11.580;2023-07-22T03:32:04;2.20;;;2.10;;
14021;SDS011;7086;48.116;11.580;2023-07-22T03:34:31;2.25;;;2.05;;
14021;SDS011;7086;48.116;11.580;2023-07-22T03:36:58;2.08;;;1.98;;
14021;SDS011;7086;48.116;11.580;2023-07-22T03:39:25;3.20;;;1.77;;
14021;SDS011;7086;48.116;11.580;2023-07-22T03:41:54;2.17;;;2.05;;
14021;SDS011;7086;48.116;11.580;2023-07-22T03:44:21;4.43;;;1.98;;
14021;SDS011;7086;48.116;11.580;2023-07-22T03:46:48;2.42;;;2.22;;
14021;SDS011;7086;48.116;11.580;2023-07-22T03:49:15;2.35;;;2.22;;
14021;SDS011;7086;48.116;11.580;2023-07-22T03:51:42;4.15;;;1.85;;
14021;SDS011;7086;48.116;11.580;2023-07-22T03:54:09;1.88;;;1.77;;
14021;SDS011;7086;48.116;11.580;2023-07-22T03:56:39;2.47;;;2.28;;
14021;SDS011;7086;48.116;11.580;2023-07-22T03:59:08;2.08;;;1.88;;
14021;SDS011;7086;48.116;11.580;2023-07-22T04:01:36;2.03;;;1.92;;
14021;SDS011;7086;48.116;11.580;2023-07-22T04:04:03;1.65;;;1.55;;
14021;SDS011;7086;48.116;11.580;2023-07-22T04:06:30;1.90;;;1.80;;
14021;SDS011;7086;48.116;11.580;2023-07-22T04:08:57;2.00;;;1.90;;
14021;SDS011;7086;48.116;11.580;2023-07-22T04:11:25;1.77;;;1.63;;
14021;SDS011;7086;48.116;11.580;2023-07-22T04:13:52;1.80;;;1.70;;
14021;SDS011;7086;48.116;11.580;2023-07-22T04:16:20;1.40;;;1.40;;
14021;SDS011;7086;48.116;11.580;2023-07-22T04:18:47;2.15;;;1.58;;
14021;SDS011;7086;48.116;11.580;2023-07-22T04:21:13;1.80;;;1.70;;
14021;SDS011;7086;48.116;11.580;2023-07-22T04:23:40;3.50;;;1.98;;
14021;SDS011;7086;48.116;11.580;2023-07-22T04:26:06;5.93;;;1.75;;
14021;SDS011;7086;48.116;11.580;2023-07-22T04:28:33;1.52;;;1.42;;
14021;SDS011;7086;48.116;11.580;2023-07-22T04:31:00;2.10;;;1.85;;
14021;SDS011;7086;48.116;11.580;2023-07-22T04:33:28;2.13;;;1.92;;
14021;SDS011;7086;48.116;11.580;2023-07-22T04:35:57;2.13;;;1.92;;
14021;SDS011;7086;48.116;11.580;2023-07-22T04:38:26;2.10;;;1.90;;
14021;SDS011;7086;48.116;11.580;2023-07-22T04:40:52;2.08;;;1.90;;
14021;SDS011;7086;48.116;11.580;2023-07-22T04:43:19;2.75;;;1.88;;
14021;SDS011;7086;48.116;11.580;2023-07-22T04:45:46;1.98;;;1.88;;
14021;SDS011;7086;48.116;11.580;2023-07-22T04:48:14;1.55;;;1.50;;
14021;SDS011;7086;48.116;11.580;2023-07-22T04:50:43;2.40;;;2.20;;
14021;SDS011;7086;48.116;11.580;2023-07-22T04:53:11;2.28;;;1.80;;
14021;SDS011;7086;48.116;11.580;2023-07-22T04:55:39;2.15;;;1.63;;
14021;SDS011;7086;48.116;11.580;2023-07-22T04:58:06;2.15;;;1.90;;
14021;SDS011;7086;48.116;11.580;2023-07-22T05:00:34;2.00;;;1.90;;
14021;SDS011;7086;48.116;11.580;2023-07-22T05:03:02;1.98;;;1.88;;
14021;SDS011;7086;48.116;11.580;2023-07-22T05:05:29;2.33;;;1.75;;
14021;SDS011;7086;48.116;11.580;2023-07-22T05:07:57;2.08;;;1.98;;
14021;SDS011;7086;48.116;11.580;2023-07-22T05:10:24;1.88;;;1.77;;
14021;SDS011;7086;48.116;11.580;2023-07-22T05:12:50;2.03;;;1.90;;
14021;SDS011;7086;48.116;11.580;2023-07-22T05:15:17;2.00;;;1.90;;
14021;SDS011;7086;48.116;11.580;2023-07-22T05:17:44;2.13;;;1.98;;
14021;SDS011;7086;48.116;11.580;2023-07-22T05:20:11;2.20;;;1.58;;
14021;SDS011;7086;48.116;11.580;2023-07-22T05:22:38;3.30;;;1.90;;
14021;SDS011;7086;48.116;11.580;2023-07-22T05:25:07;2.10;;;1.85;;
14021;SDS011;7086;48.116;11.580;2023-07-22T05:27:34;1.58;;;1.48;;
14021;SDS011;7086;48.116;11.580;2023-07-22T05:30:01;2.30;;;2.15;;
14021;SDS011;7086;48.116;11.580;2023-07-22T05:32:28;1.95;;;1.85;;
14021;SDS011;7086;48.116;11.580;2023-07-22T05:34:55;2.13;;;1.92;;
14021;SDS011;7086;48.116;11.580;2023-07-22T05:37:22;2.10;;;1.92;;
14021;SDS011;7086;48.116;11.580;2023-07-22T05:39:49;1.52;;;1.42;;
14021;SDS011;7086;48.116;11.580;2023-07-22T05:42:17;1.92;;;1.80;;
14021;SDS011;7086;48.116;11.580;2023-07-22T05:44:44;1.75;;;1.65;;
14021;SDS011;7086;48.116;11.580;2023-07-22T05:47:11;3.10;;;1.80;;
14021;SDS011;7086;48.116;11.580;2023-07-22T05:49:38;2.13;;;1.90;;
14021;SDS011;7086;48.116;11.580;2023-07-22T05:52:05;1.75;;;1.60;;
14021;SDS011;7086;48.116;11.580;2023-07-22T05:54:32;1.80;;;1.70;;
14021;SDS011;7086;48.116;11.580;2023-07-22T05:56:59;1.30;;;1.30;;
14021;SDS011;7086;48.116;11.580;2023-07-22T05:59:27;1.42;;;1.33;;
14021;SDS011;7086;48.116;11.580;2023-07-22T06:01:54;1.80;;;1.70;;
14021;SDS011;7086;48.116;11.580;2023-07-22T06:04:21;2.88;;;1.50;;
14021;SDS011;7086;48.116;11.580;2023-07-22T06:06:48;5.30;;;1.75;;
14021;SDS011;7086;48.116;11.580;2023-07-22T06:09:15;1.95;;;1.85;;
14021;SDS011;7086;48.116;11.580;2023-07-22T06:11:41;2.47;;;2.25;;
14021;SDS011;7086;48.116;11.580;2023-07-22T06:14:08;1.48;;;1.45;;
14021;SDS011;7086;48.116;11.580;2023-07-22T06:16:36;2.47;;;1.30;;
14021;SDS011;7086;48.116;11.580;2023-07-22T06:19:03;1.90;;;1.80;;
14021;SDS011;7086;48.116;11.580;2023-07-22T06:21:30;1.63;;;1.27;;
14021;SDS011;7086;48.116;11.580;2023-07-22T06:23:57;1.85;;;1.40;;
14021;SDS011;7086;48.116;11.580;2023-07-22T06:26:23;2.10;;;1.80;;
14021;SDS011;7086;48.116;11.580;2023-07-22T06:28:50;1.70;;;1.60;;
14021;SDS011;7086;48.116;11.580;2023-07-22T06:31:19;1.83;;;1.73;;
14021;SDS011;7086;48.116;11.580;2023-07-22T06:33:48;1.55;;;1.45;;
14021;SDS011;7086;48.116;11.580;2023-07-22T06:36:14;1.73;;;1.52;;
14021;SDS011;7086;48.116;11.580;2023-07-22T06:38:42;1.50;;;1.40;;
14021;SDS011;7086;48.116;11.580;2023-07-22T06:41:09;3.42;;;1.60;;
14021;SDS011;7086;48.116;11.580;2023-07-22T06:43:36;1.63;;;1.52;;
14021;SDS011;7086;48.116;11.580;2023-07-22T06:46:03;1.60;;;1.50;;
14021;SDS011;7086;48.116;11.580;2023-07-22T06:48:29;1.60;;;1.50;;
14021;SDS011;7086;48.116;11.580;2023-07-22T06:50:58;1.45;;;1.35;;
14021;SDS011;7086;48.116;11.580;2023-07-22T06:53:24;1.50;;;1.40;;
14021;SDS011;7086;48.116;11.580;2023-07-22T06:55:51;1.83;;;1.73;;
14021;SDS011;7086;48.116;11.580;2023-07-22T06:58:19;1.55;;;1.45;;
14021;SDS011;7086;48.116;11.580;2023-07-22T07:00:47;1.23;;;1.23;;
14021;SDS011;7086;48.116;11.580;2023-07-22T07:03:14;1.65;;;1.55;;
14021;SDS011;7086;48.116;11.580;2023-07-22T07:05:41;1.33;;;1.33;;
14021;SDS011;7086;48.116;11.580;2023-07-22T07:08:09;9.18;;;1.63;;
14021;SDS011;7086;48.116;11.580;2023-07-22T07:10:37;1.00;;;1.00;;
14021;SDS011;7086;48.116;11.580;2023-07-22T07:13:05;1.58;;;1.38;;
14021;SDS011;7086;48.116;11.580;2023-07-22T07:15:31;1.90;;;1.27;;
14021;SDS011;7086;48.116;11.580;2023-07-22T07:17:58;1.13;;;1.13;;
14021;SDS011;7086;48.116;11.580;2023-07-22T07:20:24;1.70;;;1.33;;
14021;SDS011;7086;48.116;11.580;2023-07-22T07:22:51;2.33;;;1.25;;
14021;SDS011;7086;48.116;11.580;2023-07-22T07:25:19;1.38;;;1.30;;
14021;SDS011;7086;48.116;11.580;2023-07-22T07:27:45;1.45;;;1.45;;
14021;SDS011;7086;48.116;11.580;2023-07-22T07:30:12;1.20;;;1.20;;
14021;SDS011;7086;48.116;11.580;2023-07-22T07:32:39;1.30;;;1.20;;
14021;SDS011;7086;48.116;11.580;2023-07-22T07:35:07;1.63;;;1.10;;
14021;SDS011;7086;48.116;11.580;2023-07-22T07:37:34;1.88;;;1.05;;
14021;SDS011;7086;48.116;11.580;2023-07-22T07:40:01;1.63;;;1.50;;
14021;SDS011;7086;48.116;11.580;2023-07-22T07:42:30;1.20;;;1.10;;
14021;SDS011;7086;48.116;11.580;2023-07-22T07:44:57;1.98;;;1.88;;
14021;SDS011;7086;48.116;11.580;2023-07-22T07:47:24;1.38;;;1.30;;
14021;SDS011;7086;48.116;11.580;2023-07-22T07:49:50;1.20;;;1.20;;
14021;SDS011;7086;48.116;11.580;2023-07-22T07:52:17;1.30;;;1.20;;
14021;SDS011;7086;48.116;11.580;2023-07-22T07:54:44;1.50;;;1.40;;
14021;SDS011;7086;48.116;11.580;2023-07-22T07:57:10;1.60;;;1.50;;
14021;SDS011;7086;48.116;11.580;2023-07-22T07:59:39;1.15;;;1.15;;
14021;SDS011;7086;48.116;11.580;2023-07-22T08:02:06;2.45;;;1.42;;
14021;SDS011;7086;48.116;11.580;2023-07-22T08:04:34;2.42;;;2.33;;
14021;SDS011;7086;48.116;11.580;2023-07-22T08:07:01;1.30;;;1.20;;
14021;SDS011;7086;48.116;11.580;2023-07-22T08:09:29;2.25;;;1.10;;
14021;SDS011;7086;48.116;11.580;2023-07-22T08:11:56;1.50;;;1.40;;
14021;SDS011;7086;48.116;11.580;2023-07-22T08:14:23;1.15;;;1.08;;
14021;SDS011;7086;48.116;11.580;2023-07-22T08:16:53;2.05;;;1.38;;
14021;SDS011;7086;48.116;11.580;2023-07-22T08:19:20;1.73;;;1.60;;
14021;SDS011;7086;48.116;11.580;2023-07-22T08:21:47;1.23;;;1.10;;
14021;SDS011;7086;48.116;11.580;2023-07-22T08:24:13;1.10;;;1.00;;
14021;SDS011;7086;48.116;11.580;2023-07-22T08:26:40;1.70;;;1.10;;
14021;SDS011;7086;48.116;11.580;2023-07-22T08:29:07;1.13;;;1.13;;
14021;SDS011;7086;48.116;11.580;2023-07-22T08:31:34;1.15;;;1.05;;
14021;SDS011;7086;48.116;11.580;2023-07-22T08:34:03;1.00;;;1.00;;
14021;SDS011;7086;48.116;11.580;2023-07-22T08:36:30;1.10;;;1.10;;
14021;SDS011;7086;48.116;11.580;2023-07-22T08:38:57;0.82;;;0.82;;
14021;SDS011;7086;48.116;11.580;2023-07-22T08:41:24;1.25;;;0.93;;
14021;SDS011;7086;48.116;11.580;2023-07-22T08:43:52;1.10;;;1.08;;
14021;SDS011;7086;48.116;11.580;2023-07-22T08:46:21;0.82;;;0.82;;
14021;SDS011;7086;48.116;11.580;2023-07-22T08:48:53;2.67;;;1.00;;
14021;SDS011;7086;48.116;11.580;2023-07-22T08:51:22;1.75;;;0.85;;
14021;SDS011;7086;48.116;11.580;2023-07-22T08:53:50;3.08;;;1.27;;
14021;SDS011;7086;48.116;11.580;2023-07-22T08:56:17;0.82;;;0.82;;
14021;SDS011;7086;48.116;11.580;2023-07-22T08:58:45;1.75;;;0.95;;
14021;SDS011;7086;48.116;11.580;2023-07-22T09:01:12;2.78;;;2.58;;
14021;SDS011;7086;48.116;11.580;2023-07-22T09:03:39;1.00;;;1.00;;
14021;SDS011;7086;48.116;11.580;2023-07-22T09:06:08;0.90;;;0.90;;
14021;SDS011;7086;48.116;11.580;2023-07-22T09:08:36;1.20;;;1.20;;
14021;SDS011;7086;48.116;11.580;2023-07-22T09:11:03;3.83;;;1.67;;
14021;SDS011;7086;48.116;11.580;2023-07-22T09:13:30;1.48;;;1.38;;
14021;SDS011;7086;48.116;11.580;2023-07-22T09:15:58;1.10;;;1.10;;
14021;SDS011;7086;48.116;11.580;2023-07-22T09:18:26;1.15;;;1.15;;
14021;SDS011;7086;48.116;11.580;2023-07-22T09:20:52;0.80;;;0.80;;
14021;SDS011;7086;48.116;11.580;2023-07-22T09:23:31;1.60;;;1.50;;
14021;SDS011;7086;48.116;11.580;2023-07-22T09:26:09;1.17;;;1.08;;
14021;SDS011;7086;48.116;11.580;2023-07-22T09:28:52;1.25;;;1.15;;
14021;SDS011;7086;48.116;11.580;2023-07-22T09:31:26;2.55;;;1.23;;
14021;SDS011;7086;48.116;11.580;2023-07-22T09:33:54;0.93;;;0.93;;
14021;SDS011;7086;48.116;11.580;2023-07-22T09:36:21;0.70;;;0.70;;
14021;SDS011;7086;48.116;11.580;2023-07-22T09:38:58;1.02;;;1.02;;
14021;SDS011;7086;48.116;11.580;2023-07-22T09:41:28;1.05;;;1.02;;
14021;SDS011;7086;48.116;11.580;2023-07-22T09:43:55;1.55;;;1.13;;
14021;SDS011;7086;48.116;11.580;2023-07-22T09:46:22;0.60;;;0.60;;
14021;SDS011;7086;48.116;11.580;2023-07-22T09:49:00;1.23;;;1.23;;
14021;SDS011;7086;48.116;11.580;2023-07-22T09:51:32;2.17;;;2.08;;
14021;SDS011;7086;48.116;11.580;2023-07-22T09:54:00;2.42;;;2.33;;
14021;SDS011;7086;48.116;11.580;2023-07-22T09:56:42;1.80;;;1.70;;
14021;SDS011;7086;48.116;11.580;2023-07-22T09:59:10;1.27;;;1.17;;
14021;SDS011;7086;48.116;11.580;2023-07-22T10:01:38;2.15;;;0.93;;
14021;SDS011;7086;48.116;11.580;2023-07-22T10:04:06;1.17;;;1.02;;
14021;SDS011;7086;48.116;11.580;2023-07-22T10:06:33;1.05;;;0.80;;
14021;SDS011;7086;48.116;11.580;2023-07-22T10:09:01;0.80;;;0.80;;
14021;SDS011;7086;48.116;11.580;2023-07-22T10:11:33;0.80;;;0.80;;
14021;SDS011;7086;48.116;11.580;2023-07-22T10:14:01;0.73;;;0.73;;
14021;SDS011;7086;48.116;11.580;2023-07-22T10:16:28;1.67;;;0.90;;
14021;SDS011;7086;48.116;11.580;2023-07-22T10:18:55;0.90;;;0.90;;
14021;SDS011;7086;48.116;11.580;2023-07-22T10:21:23;0.95;;;0.80;;
14021;SDS011;7086;48.116;11.580;2023-07-22T10:23:50;0.90;;;0.90;;
14021;SDS011;7086;48.116;11.580;2023-07-22T10:26:17;1.90;;;1.80;;
14021;SDS011;7086;48.116;11.580;2023-07-22T10:28:47;1.00;;;1.00;;
14021;SDS011;7086;48.116;11.580;2023-07-22T10:31:14;2.00;;;1.90;;
14021;SDS011;7086;48.116;11.580;2023-07-22T10:33:44;1.70;;;1.30;;
14021;SDS011;7086;48.116;11.580;2023-07-22T10:36:13;0.88;;;0.88;;
14021;SDS011;7086;48.116;11.580;2023-07-22T10:38:42;0.82;;;0.82;;
14021;SDS011;7086;48.116;11.580;2023-07-22T10:41:12;0.90;;;0.90;;
14021;SDS011;7086;48.116;11.580;2023-07-22T10:43:42;1.25;;;1.15;;
14021;SDS011;7086;48.116;11.580;2023-07-22T10:46:30;1.25;;;1.15;;
14021;SDS011;7086;48.116;11.580;2023-07-22T10:49:06;2.53;;;0.80;;
14021;SDS011;7086;48.116;11.580;2023-07-22T10:51:36;1.13;;;1.13;;
14021;SDS011;7086;48.116;11.580;2023-07-22T10:54:03;0.90;;;0.90;;
14021;SDS011;7086;48.116;11.580;2023-07-22T10:56:38;1.65;;;1.55;;
14021;SDS011;7086;48.116;11.580;2023-07-22T10:59:06;2.97;;;2.78;;
14021;SDS011;7086;48.116;11.580;2023-07-22T11:01:43;1.48;;;1.40;;
14021;SDS011;7086;48.116;11.580;2023-07-22T11:04:23;1.75;;;1.65;;
14021;SDS011;7086;48.116;11.580;2023-07-22T11:06:56;1.23;;;1.05;;
14021;SDS011;7086;48.116;11.580;2023-07-22T11:09:33;0.80;;;0.80;;
14021;SDS011;7086;48.116;11.580;2023-07-22T11:12:06;0.90;;;0.90;;
14021;SDS011;7086;48.116;11.580;2023-07-22T11:14:37;1.10;;;1.10;;
14021;SDS011;7086;48.116;11.580;2023-07-22T11:17:07;1.20;;;1.10;;
14021;SDS011;7086;48.116;11.580;2023-07-22T11:19:36;0.90;;;0.90;;
14021;SDS011;7086;48.116;11.580;2023-07-22T11:22:04;0.70;;;0.60;;
14021;SDS011;7086;48.116;11.580;2023-07-22T11:24:32;1.05;;;1.00;;
14021;SDS011;7086;48.116;11.580;2023-07-22T11:27:01;0.90;;;0.90;;
14021;SDS011;7086;48.116;11.580;2023-07-22T11:29:29;1.30;;;1.20;;
14021;SDS011;7086;48.116;11.580;2023-07-22T11:31:56;0.90;;;0.90;;
14021;SDS011;7086;48.116;11.580;2023-07-22T11:34:25;0.77;;;0.77;;
14021;SDS011;7086;48.116;11.580;2023-07-22T11:36:52;0.82;;;0.75;;
14021;SDS011;7086;48.116;11.580;2023-07-22T11:39:21;0.88;;;0.88;;
14021;SDS011;7086;48.116;11.580;2023-07-22T11:41:48;0.77;;;0.77;;
14021;SDS011;7086;48.116;11.580;2023-07-22T11:44:16;2.15;;;1.10;;
14021;SDS011;7086;48.116;11.580;2023-07-22T11:46:52;1.25;;;1.25;;
14021;SDS011;7086;48.116;11.580;2023-07-22T11:49:21;1.05;;;1.00;;
14021;SDS011;7086;48.116;11.580;2023-07-22T11:51:51;0.80;;;0.80;;
14021;SDS011;7086;48.116;11.580;2023-07-22T11:54:20;0.85;;;0.85;;
14021;SDS011;7086;48.116;11.580;2023-07-22T11:56:47;0.75;;;0.75;;
14021;SDS011;7086;48.116;11.580;2023-07-22T11:59:14;1.00;;;0.90;;
14021;SDS011;7086;48.116;11.580;2023-07-22T12:01:42;1.30;;;1.08;;
14021;SDS011;7086;48.116;11.580;2023-07-22T12:04:10;3.70;;;1.40;;
14021;SDS011;7086;48.116;11.580;2023-07-22T12:06:37;2.85;;;2.65;;
14021;SDS011;7086;48.116;11.580;2023-07-22T12:09:06;2.53;;;2.42;;
14021;SDS011;7086;48.116;11.580;2023-07-22T12:11:34;1.45;;;1.40;;
14021;SDS011;7086;48.116;11.580;2023-07-22T12:14:06;1.90;;;1.80;;
14021;SDS011;7086;48.116;11.580;2023-07-22T12:16:34;1.35;;;1.25;;
14021;SDS011;7086;48.116;11.580;2023-07-22T12:19:07;1.38;;;1.02;;
14021;SDS011;7086;48.116;11.580;2023-07-22T12:21:34;0.82;;;0.82;;
14021;SDS011;7086;48.116;11.580;2023-07-22T12:24:01;1.70;;;0.90;;
14021;SDS011;7086;48.116;11.580;2023-07-22T12:26:30;1.40;;;1.40;;
14021;SDS011;7086;48.116;11.580;2023-07-22T12:28:57;1.13;;;1.13;;
14021;SDS011;7086;48.116;11.580;2023-07-22T12:31:27;0.98;;;0.98;;
14021;SDS011;7086;48.116;11.580;2023-07-22T12:33:54;1.20;;;0.90;;
14021;SDS011;7086;48.116;11.580;2023-07-22T12:36:20;1.30;;;0.88;;
14021;SDS011;7086;48.116;11.580;2023-07-22T12:38:47;1.15;;;1.02;;
14021;SDS011;7086;48.116;11.580;2023-07-22T12:41:14;1.30;;;1.20;;
14021;SDS011;7086;48.116;11.580;2023-07-22T12:43:42;1.10;;;1.10;;
14021;SDS011;7086;48.116;11.580;2023-07-22T12:46:09;1.10;;;1.10;;
14021;SDS011;7086;48.116;11.580;2023-07-22T12:48:36;1.30;;;1.30;;
14021;SDS011;7086;48.116;11.580;2023-07-22T12:51:03;1.25;;;1.25;;
14021;SDS011;7086;48.116;11.580;2023-07-22T12:53:30;1.50;;;1.40;;
14021;SDS011;7086;48.116;11.580;2023-07-22T12:56:00;1.50;;;1.40;;
14021;SDS011;7086;48.116;11.580;2023-07-22T12:58:28;1.08;;;1.08;;
14021;SDS011;7086;48.116;11.580;2023-07-22T13:00:57;0.98;;;0.98;;
14021;SDS011;7086;48.116;11.580;2023-07-22T13:03:24;1.13;;;1.13;;
14021;SDS011;7086;48.116;11.580;2023-07-22T13:05:51;0.93;;;0.93;;
14021;SDS011;7086;48.116;11.580;2023-07-22T13:08:18;1.80;;;1.70;;
14021;SDS011;7086;48.116;11.580;2023-07-22T13:10:45;1.80;;;1.70;;
14021;SDS011;7086;48.116;11.580;2023-07-22T13:13:12;1.58;;;1.45;;
14021;SDS011;7086;48.116;11.580;2023-07-22T13:15:41;1.08;;;1.08;;
14021;SDS011;7086;48.116;11.580;2023-07-22T13:18:09;0.73;;;0.73;;
14021;SDS011;7086;48.116;11.580;2023-07-22T13:20:38;0.95;;;0.95;;
14021;SDS011;7086;48.116;11.580;2023-07-22T13:23:05;1.40;;;1.30;;
14021;SDS011;7086;48.116;11.580;2023-07-22T13:25:32;2.92;;;2.72;;
14021;SDS011;7086;48.116;11.580;2023-07-22T13:28:01;1.70;;;1.60;;
14021;SDS011;7086;48.116;11.580;2023-07-22T13:30:28;1.70;;;1.60;;
14021;SDS011;7086;48.116;11.580;2023-07-22T13:32:56;1.40;;;1.30;;
14021;SDS011;7086;48.116;11.580;2023-07-22T13:35:24;0.85;;;0.85;;
14021;SDS011;7086;48.116;11.580;2023-07-22T13:37:51;1.25;;;1.25;;
14021;SDS011;7086;48.116;11.580;2023-07-22T13:40:18;1.40;;;1.40;;
14021;SDS011;7086;48.116;11.580;2023-07-22T13:42:44;1.02;;;1.02;;
14021;SDS011;7086;48.116;11.580;2023-07-22T13:45:11;1.85;;;1.00;;
14021;SDS011;7086;48.116;11.580;2023-07-22T13:47:38;1.30;;;1.20;;
14021;SDS011;7086;48.116;11.580;2023-07-22T13:50:05;1.00;;;1.00;;
14021;SDS011;7086;48.116;11.580;2023-07-22T13:52:33;1.00;;;1.00;;
14021;SDS011;7086;48.116;11.580;2023-07-22T13:55:00;1.50;;;1.20;;
14021;SDS011;7086;48.116;11.580;2023-07-22T13:57:27;1.50;;;1.40;;
14021;SDS011;7086;48.116;11.580;2023-07-22T13:59:54;0.93;;;0.93;;
14021;SDS011;7086;48.116;11.580;2023-07-22T14:02:21;0.90;;;0.90;;
14021;SDS011;7086;48.116;11.580;2023-07-22T14:04:47;1.60;;;0.93;;
14021;SDS011;7086;48.116;11.580;2023-07-22T14:07:14;0.93;;;0.93;;
14021;SDS011;7086;48.116;11.580;2023-07-22T14:09:43;0.90;;;0.90;;
14021;SDS011;7086;48.116;11.580;2023-07-22T14:12:10;1.20;;;1.20;;
14021;SDS011;7086;48.116;11.580;2023-07-22T14:14:37;1.77;;;1.67;;
14021;SDS011;7086;48.116;11.580;2023-07-22T14:17:04;1.10;;;1.10;;
14021;SDS011;7086;48.116;11.580;2023-07-22T14:19:32;1.83;;;1.17;;
14021;SDS011;7086;48.116;11.580;2023-07-22T14:21:59;0.93;;;0.93;;
14021;SDS011;7086;48.116;11.580;2023-07-22T14:24:26;0.95;;;0.95;;
14021;SDS011;7086;48.116;11.580;2023-07-22T14:26:54;1.10;;;1.10;;
14021;SDS011;7086;48.116;11.580;2023-07-22T14:29:21;1.30;;;1.08;;
14021;SDS011;7086;48.116;11.580;2023-07-22T14:31:50;1.13;;;1.10;;
14021;SDS011;7086;48.116;11.580;2023-07-22T14:34:16;1.85;;;1.60;;
14021;SDS011;7086;48.116;11.580;2023-07-22T14:36:43;1.20;;;1.10;;
14021;SDS011;7086;48.116;11.580;2023-07-22T14:39:10;0.93;;;0.93;;
14021;SDS011;7086;48.116;11.580;2023-07-22T14:41:37;1.30;;;1.30;;
14021;SDS011;7086;48.116;11.580;2023-07-22T14:44:05;1.20;;;1.20;;
14021;SDS011;7086;48.116;11.580;2023-07-22T14:46:32;1.65;;;1.55;;
14021;SDS011;7086;48.116;11.580;2023-07-22T14:48:59;1.40;;;1.30;;
14021;SDS011;7086;48.116;11.580;2023-07-22T14:51:26;1.63;;;1.52;;